Time;durP1;ratioP1;P1;durP2;ratioP2;P2;SDS_P1;SDS_P2;PMS_P1;PMS_P2;Temp;Humidity;BMP_temperature;BMP_pressure;BME280_temperature;BME280_humidity;BME280_pressure;Samples;Min_cycle;Max_cycle;Signal;HPM_P1;HPM_P2
2023/02/21 02:14:34;;;;;;;30.67;14.90;;;9.60;99.90;;;;;;4884682;29;20063;-70
2023/02/21 02:17:09;;;;;;;31.63;13.57;;;9.60;99.90;;;;;;4883297;29;20049;-70
2023/02/21 02:20:12;;;;;;;38.28;13.95;;;9.60;99.90;;;;;;4881116;29;20033;-70
2023/02/21 02:23:02;;;;;;;42.10;16.45;;;9.60;99.90;;;;;;4882647;29;20052;-70
2023/02/21 02:25:57;;;;;;;37.03;14.48;;;9.70;99.90;;;;;;4882432;29;20032;-69
2023/02/21 02:28:51;;;;;;;41.78;14.82;;;9.70;99.90;;;;;;4865657;29;20044;-70
2023/02/21 02:31:50;;;;;;;35.67;14.27;;;9.70;99.90;;;;;;4883777;29;20089;-69
2023/02/21 02:34:39;;;;;;;35.85;15.70;;;9.70;99.90;;;;;;4884634;29;20037;-70
2023/02/21 02:37:28;;;;;;;40.53;15.65;;;9.70;99.90;;;;;;4882677;29;20032;-70
2023/02/21 02:40:04;;;;;;;35.47;16.35;;;9.70;99.90;;;;;;4883561;29;20048;-71
2023/02/21 02:42:44;;;;;;;43.25;17.45;;;9.60;99.90;;;;;;4882372;29;20025;-71
2023/02/21 02:45:49;;;;;;;36.53;16.27;;;9.70;99.90;;;;;;4883270;29;20103;-70
2023/02/21 02:48:18;;;;;;;45.22;16.77;;;9.60;99.90;;;;;;4833687;29;20048;-72
2023/02/21 02:50:47;;;;;;;44.92;16.83;;;9.60;99.90;;;;;;4864797;29;20103;-71
2023/02/21 02:53:18;;;;;;;42.97;16.10;;;9.60;99.90;;;;;;4881417;29;20552;-71
2023/02/21 02:55:50;;;;;;;44.67;17.05;;;9.60;99.90;;;;;;4879291;29;20054;-71
2023/02/21 02:58:19;;;;;;;49.55;19.63;;;9.70;99.90;;;;;;4864998;29;20421;-70
2023/02/21 03:00:55;;;;;;;37.83;16.15;;;9.70;99.90;;;;;;4866490;29;20022;-73
2023/02/21 03:03:46;;;;;;;41.22;17.17;;;9.70;99.90;;;;;;4881807;29;20037;-71
2023/02/21 03:06:29;;;;;;;44.63;16.73;;;9.70;99.90;;;;;;4883800;29;20032;-70
2023/02/21 03:09:20;;;;;;;49.55;17.20;;;9.70;99.90;;;;;;4880497;29;20062;-70
2023/02/21 03:12:09;;;;;;;49.28;17.95;;;9.70;99.90;;;;;;4866880;29;20025;-71
2023/02/21 03:14:49;;;;;;;48.72;18.45;;;9.70;99.90;;;;;;4864951;29;20157;-71
2023/02/21 03:17:17;;;;;;;43.47;17.48;;;9.60;99.90;;;;;;4875622;29;20045;-71
2023/02/21 03:19:46;;;;;;;39.95;17.50;;;9.60;99.90;;;;;;4881846;29;20060;-70
2023/02/21 03:22:17;;;;;;;;;;;9.70;99.90;;;;;;4882043;29;20033;-70
2023/02/21 03:24:46;;;;;;;45.45;16.00;;;9.70;99.90;;;;;;4879541;29;19912;-70
2023/02/21 03:27:13;;;;;;;43.45;19.25;;;9.70;99.90;;;;;;4878520;29;20055;-73
2023/02/21 03:29:39;;;;;;;46.17;17.67;;;9.70;99.90;;;;;;4879743;29;20025;-70
2023/02/21 03:34:39;;;;;;;50.28;18.15;;;9.70;99.90;;;;;;4879445;29;20041;-70
2023/02/21 03:37:07;;;;;;;50.25;18.92;;;9.80;99.90;;;;;;4880074;29;20029;-70
2023/02/21 03:39:33;;;;;;;47.05;17.25;;;9.70;99.90;;;;;;4880389;29;20521;-69
2023/02/21 03:41:59;;;;;;;39.13;17.15;;;9.80;99.90;;;;;;4880272;29;20029;-70
2023/02/21 03:44:24;;;;;;;43.13;17.98;;;9.80;99.90;;;;;;4879681;29;20029;-69
2023/02/21 03:46:50;;;;;;;51.45;19.08;;;9.80;99.90;;;;;;4879796;29;20521;-70
2023/02/21 03:49:15;;;;;;;41.88;17.20;;;9.80;99.90;;;;;;4880186;29;20027;-69
2023/02/21 03:51:41;;;;;;;41.08;17.30;;;9.70;99.90;;;;;;4878895;29;20508;-69
2023/02/21 03:54:07;;;;;;;48.25;18.92;;;9.70;99.90;;;;;;4879654;29;20036;-70
2023/02/21 03:56:32;;;;;;;41.28;17.13;;;9.70;99.90;;;;;;4880090;29;20029;-71
2023/02/21 03:58:58;;;;;;;44.60;17.85;;;9.80;99.90;;;;;;4877024;29;20414;-70
2023/02/21 04:01:23;;;;;;;47.40;18.42;;;9.80;99.90;;;;;;4879071;29;20033;-69
2023/02/21 04:03:49;;;;;;;46.17;18.52;;;9.70;99.90;;;;;;4879855;29;20032;-69
2023/02/21 04:06:15;;;;;;;41.47;17.73;;;9.70;99.90;;;;;;4879938;29;20101;-71
2023/02/21 04:08:40;;;;;;;46.67;18.73;;;9.80;99.90;;;;;;4878613;29;20393;-69
2023/02/21 04:11:07;;;;;;;40.28;18.23;;;9.70;99.90;;;;;;4879028;29;20529;-70
2023/02/21 04:13:32;;;;;;;43.05;17.95;;;9.70;99.90;;;;;;4879840;29;20029;-70
2023/02/21 04:15:58;;;;;;;41.13;18.17;;;9.70;99.90;;;;;;4869362;29;20057;-70
2023/02/21 04:18:24;;;;;;;47.42;17.92;;;9.70;99.90;;;;;;4878720;29;20041;-70
2023/02/21 04:20:49;;;;;;;57.63;20.40;;;9.70;99.90;;;;;;4879387;29;20386;-69
2023/02/21 04:23:19;;;;;;;42.35;17.35;;;9.60;99.90;;;;;;4879666;29;20025;-69
2023/02/21 04:25:45;;;;;;;50.97;20.05;;;9.60;99.90;;;;;;4879574;29;20029;-70
2023/02/21 04:28:10;;;;;;;56.25;19.63;;;9.60;99.90;;;;;;4878062;29;20513;-70
2023/02/21 04:30:36;;;;;;;45.15;20.52;;;9.60;99.90;;;;;;4870598;29;20065;-71
2023/02/21 04:33:02;;;;;;;47.85;19.90;;;9.60;99.90;;;;;;4879677;29;20033;-69
2023/02/21 04:35:28;;;;;;;46.90;19.67;;;9.60;99.90;;;;;;4879371;29;20025;-70
2023/02/21 04:37:54;;;;;;;56.35;21.63;;;9.60;99.90;;;;;;4878899;29;20371;-70
2023/02/21 04:40:20;;;;;;;60.70;21.02;;;9.60;99.90;;;;;;4879448;29;20030;-70
2023/02/21 04:42:45;;;;;;;56.03;20.25;;;9.50;99.90;;;;;;4878116;29;20017;-69
2023/02/21 04:45:11;;;;;;;65.03;22.73;;;9.60;99.90;;;;;;4878798;29;20029;-72
2023/02/21 04:47:37;;;;;;;63.28;21.13;;;9.50;99.90;;;;;;4879297;29;20033;-69
2023/02/21 04:50:03;;;;;;;51.55;23.02;;;9.60;99.90;;;;;;4879315;29;20033;-69
2023/02/21 04:52:29;;;;;;;54.13;20.60;;;9.60;99.90;;;;;;4879201;29;20077;-69
2023/02/21 04:54:55;;;;;;;59.92;23.15;;;9.60;99.90;;;;;;4879313;29;20390;-70
2023/02/21 04:57:20;;;;;;;63.83;22.13;;;9.70;99.90;;;;;;4878043;29;20430;-70
2023/02/21 04:59:46;;;;;;;73.20;21.83;;;9.60;99.90;;;;;;4879182;29;20044;-70
2023/02/21 05:02:12;;;;;;;59.72;22.10;;;9.70;99.90;;;;;;4878888;29;20025;-69
2023/02/21 05:04:38;;;;;;;66.60;23.80;;;9.60;99.90;;;;;;4878844;29;20435;-69
2023/02/21 05:07:04;;;;;;;61.88;22.17;;;9.70;99.90;;;;;;4864766;29;20438;-70
2023/02/21 05:09:30;;;;;;;66.25;23.10;;;9.60;99.90;;;;;;4878374;29;20025;-69
2023/02/21 05:11:56;;;;;;;62.03;22.90;;;9.70;99.90;;;;;;4879215;29;20100;-69
2023/02/21 05:14:21;;;;;;;67.82;24.67;;;9.70;99.90;;;;;;4879355;29;20061;-70
2023/02/21 05:16:47;;;;;;;68.68;22.75;;;9.60;99.90;;;;;;4878612;29;20100;-70
2023/02/21 05:19:26;;;;;;;66.55;23.60;;;9.70;99.90;;;;;;4877829;29;20041;-69
2023/02/21 05:21:56;;;;;;;58.47;22.42;;;9.70;99.90;;;;;;4878749;29;20076;-69
2023/02/21 05:24:23;;;;;;;67.43;24.10;;;9.70;99.90;;;;;;4874653;29;20033;-69
2023/02/21 05:26:49;;;;;;;72.47;23.63;;;9.70;99.90;;;;;;4878914;29;20121;-69
2023/02/21 05:29:15;;;;;;;62.85;23.73;;;9.70;99.90;;;;;;4875723;29;20144;-69
2023/02/21 05:31:41;;;;;;;62.25;22.05;;;9.60;99.90;;;;;;4860403;29;20078;-69
2023/02/21 05:34:21;;;;;;;65.78;22.10;;;9.60;99.90;;;;;;4860398;29;20099;-70
2023/02/21 05:36:47;;;;;;;66.10;21.90;;;9.60;99.90;;;;;;4860425;29;20161;-68
2023/02/21 05:39:13;;;;;;;66.82;22.13;;;9.70;99.90;;;;;;4863162;29;20069;-69
2023/02/21 05:41:46;;;;;;;70.88;22.60;;;9.70;99.90;;;;;;4866614;29;20041;-70
2023/02/21 05:44:11;;;;;;;71.13;24.83;;;9.70;99.90;;;;;;4863825;29;20045;-69
2023/02/21 05:46:37;;;;;;;68.03;23.50;;;9.70;99.90;;;;;;4875545;29;20424;-69
2023/02/21 05:49:03;;;;;;;79.13;24.35;;;9.70;99.90;;;;;;4870842;29;20098;-70
2023/02/21 05:51:37;;;;;;;70.80;24.00;;;9.70;99.90;;;;;;4878142;29;20089;-69
2023/02/21 05:54:04;;;;;;;60.95;22.60;;;9.70;99.90;;;;;;4880997;29;20029;-70
2023/02/21 05:56:30;;;;;;;69.28;23.42;;;9.70;99.90;;;;;;4879188;29;20048;-71
2023/02/21 05:58:55;;;;;;;67.07;24.70;;;9.70;99.90;;;;;;4870140;29;20397;-70
2023/02/21 06:01:21;;;;;;;72.28;22.70;;;9.60;99.90;;;;;;4881279;29;20044;-69
2023/02/21 06:03:46;;;;;;;62.95;22.85;;;9.60;99.90;;;;;;4882046;29;20422;-69
2023/02/21 06:06:14;;;;;;;70.95;22.60;;;9.70;99.90;;;;;;4881221;29;20073;-70
2023/02/21 06:08:49;;;;;;;77.30;23.77;;;9.70;99.90;;;;;;4880984;29;20033;-69
2023/02/21 06:11:21;;;;;;;65.18;22.95;;;9.60;99.90;;;;;;4880717;29;20037;-69
2023/02/21 06:13:50;;;;;;;64.95;22.23;;;9.60;99.90;;;;;;4882023;29;20060;-71
2023/02/21 06:16:15;;;;;;;76.97;24.02;;;9.70;99.90;;;;;;4871153;29;20060;-71
2023/02/21 06:18:41;;;;;;;66.90;23.38;;;9.70;99.90;;;;;;4872972;29;20401;-72
2023/02/21 06:21:07;;;;;;;62.83;23.50;;;9.70;99.90;;;;;;4881591;29;20044;-68
2023/02/21 06:23:32;;;;;;;73.95;24.10;;;9.70;99.90;;;;;;4881846;29;20029;-68
2023/02/21 06:25:58;;;;;;;75.55;24.55;;;9.70;99.90;;;;;;4879202;29;20378;-69
2023/02/21 06:28:28;;;;;;;58.30;22.10;;;9.70;99.90;;;;;;4876418;29;20037;-69
2023/02/21 06:30:54;;;;;;;63.00;21.85;;;9.70;99.90;;;;;;4868957;29;20043;-69
2023/02/21 06:33:20;;;;;;;63.58;23.73;;;9.70;99.90;;;;;;4881491;29;20056;-69
2023/02/21 06:35:45;;;;;;;59.95;23.08;;;9.70;99.90;;;;;;4880190;29;20443;-69
2023/02/21 06:38:11;;;;;;;70.65;24.50;;;9.70;99.90;;;;;;4881418;29;20128;-72
2023/02/21 06:40:36;;;;;;;69.32;23.88;;;9.80;99.90;;;;;;4881371;29;20033;-71
2023/02/21 06:43:02;;;;;;;74.18;24.00;;;9.70;99.90;;;;;;4881527;29;20474;-70
2023/02/21 06:45:28;;;;;;;67.72;24.63;;;9.70;99.90;;;;;;4876647;29;20017;-70
2023/02/21 06:47:53;;;;;;;64.35;22.70;;;9.80;99.90;;;;;;4862794;29;20026;-71
2023/02/21 06:50:19;;;;;;;71.35;23.45;;;9.80;99.90;;;;;;4871708;29;20028;-70
2023/02/21 06:52:45;;;;;;;81.22;23.98;;;9.80;99.90;;;;;;4881317;29;20029;-68
2023/02/21 06:55:10;;;;;;;73.15;25.05;;;9.80;99.90;;;;;;4880846;29;20021;-69
2023/02/21 06:57:36;;;;;;;64.35;23.13;;;9.80;99.90;;;;;;4881155;29;20033;-70
2023/02/21 07:00:03;;;;;;;79.63;25.52;;;9.80;99.90;;;;;;4878883;29;20040;-68
2023/02/21 07:02:29;;;;;;;67.17;23.83;;;9.80;99.90;;;;;;4877645;29;20474;-69
2023/02/21 07:04:54;;;;;;;70.60;26.13;;;9.80;99.90;;;;;;4878734;29;20024;-69
2023/02/21 07:07:20;;;;;;;81.78;24.77;;;9.80;99.90;;;;;;4871894;29;20546;-69
2023/02/21 07:09:46;;;;;;;74.97;25.33;;;9.80;99.90;;;;;;4879013;29;20139;-69
2023/02/21 07:12:11;;;;;;;74.60;25.13;;;9.80;99.90;;;;;;4879570;29;20033;-69
2023/02/21 07:14:37;;;;;;;85.90;27.45;;;9.80;99.90;;;;;;4866883;29;20387;-70
2023/02/21 07:17:03;;;;;;;76.38;26.02;;;9.70;99.90;;;;;;4873796;29;20112;-69
2023/02/21 07:19:29;;;;;;;80.22;25.17;;;9.70;99.90;;;;;;4880715;29;20568;-69
2023/02/21 07:21:54;;;;;;;71.35;25.67;;;9.70;99.90;;;;;;4880514;29;20112;-71
2023/02/21 07:24:20;;;;;;;87.72;26.73;;;9.70;99.90;;;;;;4878632;29;20021;-70
2023/02/21 07:26:46;;;;;;;71.38;26.05;;;9.70;99.90;;;;;;4878704;29;21143;-71
2023/02/21 07:29:11;;;;;;;77.88;24.25;;;9.70;99.90;;;;;;4874293;29;20382;-71
2023/02/21 07:31:37;;;;;;;87.38;26.02;;;9.70;99.90;;;;;;4878038;29;20497;-71
2023/02/21 07:34:02;;;;;;;82.93;26.33;;;9.70;99.90;;;;;;4875325;29;20041;-69
2023/02/21 07:36:28;;;;;;;80.20;26.55;;;9.70;99.90;;;;;;4864208;29;20025;-70
2023/02/21 07:38:54;;;;;;;74.97;25.33;;;9.80;99.90;;;;;;4861805;29;20376;-70
2023/02/21 07:41:19;;;;;;;68.03;24.25;;;9.70;99.90;;;;;;4872743;29;20029;-69
2023/02/21 07:43:45;;;;;;;82.82;25.48;;;9.70;99.90;;;;;;4877480;29;20029;-69
2023/02/21 07:46:12;;;;;;;81.35;25.48;;;9.70;99.90;;;;;;4872494;29;20116;-70
2023/02/21 07:48:38;;;;;;;92.10;25.48;;;9.80;99.90;;;;;;4879611;29;20480;-71
2023/02/21 07:51:06;;;;;;;72.75;26.20;;;9.70;99.90;;;;;;4877132;29;20120;-70
2023/02/21 07:53:32;;;;;;;74.50;26.05;;;9.80;99.90;;;;;;4880135;29;20537;-70
2023/02/21 07:55:57;;;;;;;79.05;25.45;;;9.80;99.90;;;;;;4874353;29;20112;-72
2023/02/21 07:58:24;;;;;;;83.22;25.30;;;9.70;99.90;;;;;;4878639;29;20125;-71
2023/02/21 08:00:51;;;;;;;84.53;27.25;;;9.80;99.90;;;;;;4873540;29;20034;-71
2023/02/21 08:03:17;;;;;;;83.95;25.80;;;9.80;99.90;;;;;;4878895;29;20092;-70
2023/02/21 08:05:44;;;;;;;120.97;35.08;;;9.70;99.90;;;;;;4867809;29;20025;-70
2023/02/21 08:08:11;;;;;;;86.68;26.83;;;9.70;99.90;;;;;;4869324;29;20061;-70
2023/02/21 08:10:38;;;;;;;92.78;28.05;;;9.70;99.90;;;;;;4861239;29;20037;-70
2023/02/21 08:13:04;;;;;;;86.13;25.80;;;9.60;99.90;;;;;;4862245;29;20494;-70
2023/02/21 08:15:30;;;;;;;71.30;25.08;;;9.70;99.90;;;;;;4878898;29;20024;-71
2023/02/21 08:17:55;;;;;;;72.18;25.40;;;9.70;99.90;;;;;;4878471;29;20049;-72
2023/02/21 08:20:21;;;;;;;77.35;25.08;;;9.70;99.90;;;;;;4866756;29;20045;-71
2023/02/21 08:22:47;;;;;;;90.50;24.92;;;9.70;99.90;;;;;;4861298;29;20089;-72
2023/02/21 08:25:15;;;;;;;103.47;26.20;;;9.70;99.90;;;;;;4861846;29;20049;-71
2023/02/21 08:27:41;;;;;;;89.05;26.58;;;9.80;99.90;;;;;;4861407;29;20158;-71
2023/02/21 08:30:09;;;;;;;95.93;28.00;;;9.80;99.90;;;;;;4866583;29;20029;-71
2023/02/21 08:32:35;;;;;;;85.65;26.13;;;9.80;99.90;;;;;;4873210;29;20029;-71
2023/02/21 08:35:05;;;;;;;102.35;27.60;;;9.80;99.90;;;;;;4868193;29;20388;-70
2023/02/21 08:37:31;;;;;;;76.40;25.25;;;9.70;99.90;;;;;;4878825;29;20029;-70
2023/02/21 08:39:58;;;;;;;92.40;27.65;;;9.70;99.90;;;;;;4879402;29;20036;-72
2023/02/21 08:42:26;;;;;;;90.82;26.55;;;9.70;99.90;;;;;;4879163;29;20490;-69
2023/02/21 08:44:51;;;;;;;81.03;26.40;;;9.70;99.90;;;;;;4879391;29;20025;-70
2023/02/21 08:47:17;;;;;;;85.72;25.70;;;9.70;99.90;;;;;;4879406;29;20033;-70
2023/02/21 08:49:46;;;;;;;90.15;25.08;;;9.70;99.90;;;;;;4879340;29;20052;-70
2023/02/21 08:52:12;;;;;;;102.25;27.42;;;9.70;99.90;;;;;;4879271;29;20482;-71
2023/02/21 08:54:39;;;;;;;90.18;27.45;;;9.70;99.90;;;;;;4879098;29;20072;-72
2023/02/21 08:57:05;;;;;;;89.05;26.33;;;9.70;99.90;;;;;;4877754;29;20140;-71
2023/02/21 08:59:32;;;;;;;91.43;25.50;;;9.80;99.90;;;;;;4877671;29;20060;-70
2023/02/21 09:01:58;;;;;;;91.50;27.73;;;9.80;99.90;;;;;;4873249;29;20033;-71
2023/02/21 09:04:26;;;;;;;86.75;25.70;;;9.80;99.90;;;;;;4879277;29;20033;-70
2023/02/21 09:06:52;;;;;;;96.38;25.27;;;9.80;99.90;;;;;;4877601;29;20033;-70
2023/02/21 09:09:19;;;;;;;84.55;24.70;;;9.80;99.90;;;;;;4876974;29;20029;-70
2023/02/21 09:11:47;;;;;;;98.60;28.15;;;9.80;99.90;;;;;;4879371;29;20033;-71
2023/02/21 09:14:16;;;;;;;90.97;26.70;;;9.80;99.90;;;;;;4875372;29;20464;-71
2023/02/21 09:16:42;;;;;;;80.38;25.42;;;9.80;99.90;;;;;;4882351;29;20068;-70
2023/02/21 09:19:08;;;;;;;99.03;26.23;;;9.80;99.90;;;;;;4880964;29;20041;-71
2023/02/21 09:21:35;;;;;;;84.57;24.02;;;9.80;99.90;;;;;;4880591;29;20048;-71
2023/02/21 09:24:04;;;;;;;99.40;28.27;;;9.80;99.90;;;;;;4863197;29;20133;-71
2023/02/21 09:26:32;;;;;;;89.85;24.65;;;9.80;99.90;;;;;;4871651;29;20062;-71
2023/02/21 09:28:58;;;;;;;87.82;25.75;;;9.80;99.90;;;;;;4882383;29;20052;-72
2023/02/21 09:31:23;;;;;;;98.68;25.08;;;9.80;99.90;;;;;;4890387;29;20127;-71
2023/02/21 09:33:49;;;;;;;91.65;25.52;;;9.80;99.90;;;;;;4886918;29;20364;-72
2023/02/21 09:36:22;;;;;;;87.10;25.92;;;9.80;99.90;;;;;;4882552;29;20041;-71
2023/02/21 09:38:49;;;;;;;97.85;25.73;;;9.90;99.90;;;;;;4879670;29;20029;-71
2023/02/21 09:41:14;;;;;;;86.00;25.45;;;9.80;99.90;;;;;;4888260;29;20029;-72
2023/02/21 09:43:47;;;;;;;95.72;26.95;;;9.80;99.90;;;;;;4882446;29;20513;-70
2023/02/21 09:46:24;;;;;;;91.57;25.98;;;9.80;99.90;;;;;;4882484;29;20143;-70
2023/02/21 09:48:52;;;;;;;86.32;25.25;;;9.90;99.90;;;;;;4881324;29;20090;-72
2023/02/21 09:51:18;;;;;;;79.85;25.38;;;9.90;99.90;;;;;;4882164;29;20413;-70
2023/02/21 09:53:46;;;;;;;83.20;23.83;;;9.90;99.90;;;;;;4882414;29;20119;-71
2023/02/21 09:56:24;;;;;;;84.18;24.67;;;10.00;99.90;;;;;;4882384;29;20509;-71
2023/02/21 09:58:49;;;;;;;80.70;23.33;;;10.10;99.90;;;;;;4882244;29;20032;-71
2023/02/21 10:01:51;;;;;;;83.78;26.05;;;10.10;99.90;;;;;;4877319;29;20108;-71
2023/02/21 10:04:54;;;;;;;86.22;25.20;;;10.00;99.90;;;;;;4879624;29;20040;-72
2023/02/21 10:07:43;;;;;;;86.47;26.58;;;9.90;99.90;;;;;;4881839;29;20039;-71
2023/02/21 10:10:18;;;;;;;85.80;25.10;;;10.00;99.90;;;;;;4877810;29;20140;-71
2023/02/21 10:12:59;;;;;;;78.20;25.10;;;10.00;99.90;;;;;;4863467;29;20052;-71
2023/02/21 10:15:39;;;;;;;93.07;25.40;;;10.10;99.90;;;;;;4867905;29;20072;-70
2023/02/21 10:18:15;;;;;;;87.90;23.45;;;10.10;99.90;;;;;;4865622;29;20055;-71
2023/02/21 10:20:46;;;;;;;80.55;22.85;;;10.10;99.90;;;;;;4875584;29;20025;-71
2023/02/21 10:23:22;;;;;;;78.05;23.23;;;10.10;99.90;;;;;;4879923;29;20036;-71
2023/02/21 10:25:51;;;;;;;85.88;25.80;;;10.20;99.90;;;;;;4878407;29;20506;-71
2023/02/21 10:28:22;;;;;;;87.65;24.80;;;10.20;99.90;;;;;;4881801;29;20043;-71
2023/02/21 10:30:53;;;;;;;85.80;24.27;;;10.30;99.90;;;;;;4867380;29;20491;-71
2023/02/21 10:33:19;;;;;;;96.65;27.33;;;10.30;99.90;;;;;;4861878;29;20037;-72
2023/02/21 10:35:45;;;;;;;77.78;25.80;;;10.30;99.90;;;;;;4863057;29;20029;-71
2023/02/21 10:38:17;;;;;;;90.63;27.58;;;10.40;99.90;;;;;;4862957;29;20033;-71
2023/02/21 10:40:49;;;;;;;83.05;24.52;;;10.30;99.90;;;;;;4863077;29;20029;-72
2023/02/21 10:43:35;;;;;;;86.93;27.27;;;10.30;99.90;;;;;;4878702;29;20430;-71
2023/02/21 10:46:35;;;;;;;81.43;26.08;;;10.40;99.90;;;;;;4881504;29;20029;-71
2023/02/21 10:49:23;;;;;;;95.07;26.83;;;10.40;99.90;;;;;;4881571;29;20081;-71
2023/02/21 10:52:08;;;;;;;89.43;25.13;;;10.50;99.90;;;;;;4881409;29;20060;-72
2023/02/21 10:54:33;;;;;;;88.78;25.65;;;10.50;99.90;;;;;;4880073;29;20044;-71
2023/02/21 10:57:00;;;;;;;91.88;27.20;;;10.50;99.90;;;;;;4881376;29;20508;-73
2023/02/21 10:59:41;;;;;;;93.07;26.47;;;10.50;99.90;;;;;;4880769;29;20048;-72
2023/02/21 11:02:33;;;;;;;92.93;24.70;;;10.50;99.90;;;;;;4880027;29;20364;-71
2023/02/21 11:05:13;;;;;;;87.50;24.02;;;10.40;99.90;;;;;;4879416;29;20537;-71
2023/02/21 11:07:39;;;;;;;94.10;25.45;;;10.40;99.90;;;;;;4881152;29;20029;-70
2023/02/21 11:10:27;;;;;;;100.75;25.05;;;10.40;99.90;;;;;;4881126;29;20116;-71
2023/02/21 11:13:04;;;;;;;100.25;24.77;;;10.40;99.90;;;;;;4875129;29;20513;-71
2023/02/21 11:15:30;;;;;;;103.38;25.38;;;10.30;99.90;;;;;;4879635;29;20040;-71
2023/02/21 11:18:12;;;;;;;103.65;25.67;;;10.30;99.90;;;;;;4880581;29;20486;-71
2023/02/21 11:20:38;;;;;;;91.82;24.73;;;10.30;99.90;;;;;;4880538;29;20037;-71
2023/02/21 11:23:06;;;;;;;89.35;26.10;;;10.30;99.90;;;;;;4879117;29;20032;-70
2023/02/21 11:25:38;;;;;;;94.22;25.27;;;10.30;99.90;;;;;;4879485;29;20041;-71
2023/02/21 11:28:11;;;;;;;84.22;24.17;;;10.30;99.90;;;;;;4880732;29;20029;-71
2023/02/21 11:31:02;;;;;;;90.88;24.90;;;10.40;99.90;;;;;;4879318;29;20021;-70
2023/02/21 11:33:29;;;;;;;94.90;25.52;;;10.30;99.90;;;;;;4880472;29;20037;-72
2023/02/21 11:36:20;;;;;;;86.90;24.85;;;10.30;99.90;;;;;;4880416;29;20438;-71
2023/02/21 11:39:07;;;;;;;88.70;23.80;;;10.30;99.90;;;;;;4880573;29;20393;-70
2023/02/21 11:41:45;;;;;;;90.03;24.38;;;10.30;99.90;;;;;;4880611;29;20417;-71
2023/02/21 11:44:33;;;;;;;94.80;24.70;;;10.30;99.90;;;;;;4862424;29;20037;-72
2023/02/21 11:47:18;;;;;;;85.68;24.55;;;10.30;99.90;;;;;;4861810;29;20040;-70
2023/02/21 11:50:00;;;;;;;91.72;25.35;;;10.30;99.90;;;;;;4880703;29;20057;-71
2023/02/21 11:52:41;;;;;;;83.07;23.50;;;10.30;99.90;;;;;;4879201;29;20089;-70
2023/02/21 11:55:19;;;;;;;82.38;25.27;;;10.30;99.90;;;;;;4880255;29;20033;-70
2023/02/21 11:58:01;;;;;;;86.85;24.60;;;10.30;99.90;;;;;;4880085;29;20438;-71
2023/02/21 12:01:05;;;;;;;83.80;22.98;;;10.30;99.90;;;;;;4878728;29;20045;-71
2023/02/21 12:04:02;;;;;;;88.80;22.33;;;10.30;99.90;;;;;;4878319;29;20037;-72
2023/02/21 12:06:53;;;;;;;76.28;23.45;;;10.40;99.90;;;;;;4878300;29;20037;-70
2023/02/21 12:09:32;;;;;;;71.38;23.40;;;10.40;99.90;;;;;;4861558;29;20037;-71
2023/02/21 12:12:12;;;;;;;71.32;22.15;;;10.40;99.90;;;;;;4861456;29;20105;-71
2023/02/21 12:14:54;;;;;;;75.05;22.50;;;10.40;99.90;;;;;;4861345;29;20436;-71
2023/02/21 12:17:32;;;;;;;78.25;22.73;;;10.40;99.90;;;;;;4861064;29;20506;-71
2023/02/21 12:20:24;;;;;;;67.40;21.17;;;10.50;99.90;;;;;;4861347;29;20069;-71
2023/02/21 12:23:21;;;;;;;65.78;20.02;;;10.40;99.90;;;;;;4861405;29;20038;-71
2023/02/21 12:25:54;;;;;;;59.70;18.80;;;10.40;99.90;;;;;;4861233;29;20454;-71
2023/02/21 12:28:43;;;;;;;59.08;19.38;;;10.40;99.90;;;;;;4861139;29;20040;-71
2023/02/21 12:31:24;;;;;;;66.15;21.73;;;10.50;99.90;;;;;;4861039;29;20491;-72
2023/02/21 12:34:40;;;;;;;60.15;19.15;;;10.40;99.90;;;;;;4861165;29;20443;-69
2023/02/21 12:37:15;;;;;;;57.43;18.47;;;10.50;99.90;;;;;;4839819;29;20082;-69
2023/02/21 12:39:40;;;;;;;50.60;17.27;;;10.50;99.90;;;;;;4858921;29;20056;-71
2023/02/21 12:42:18;;;;;;;45.92;15.07;;;10.40;99.90;;;;;;4874810;29;20045;-71
2023/02/21 12:45:16;;;;;;;38.50;13.13;;;10.40;99.90;;;;;;4877859;29;20056;-70
2023/02/21 12:47:58;;;;;;;36.40;12.65;;;10.30;99.90;;;;;;4877106;29;20029;-70
2023/02/21 12:50:29;;;;;;;43.55;13.85;;;10.30;99.90;;;;;;4877447;29;20466;-70
2023/02/21 12:53:21;;;;;;;45.30;13.55;;;10.30;99.90;;;;;;4877637;29;20450;-75
2023/02/21 12:55:58;;;;;;;36.45;10.75;;;10.40;99.90;;;;;;4880658;29;20029;-77
2023/02/21 12:58:45;;;;;;;32.33;12.70;;;10.40;99.90;;;;;;4902539;29;20090;-78
2023/02/21 13:01:17;;;;;;;33.35;11.80;;;10.40;99.90;;;;;;4902206;29;20114;-78
2023/02/21 13:04:06;;;;;;;31.70;10.95;;;10.50;99.90;;;;;;4896649;29;20097;-78
2023/02/21 13:06:45;;;;;;;30.58;10.38;;;10.50;99.90;;;;;;4865357;29;20033;-77
2023/02/21 13:09:18;;;;;;;29.65;9.70;;;10.50;99.90;;;;;;4885573;29;20053;-78
2023/02/21 13:12:08;;;;;;;27.55;10.23;;;10.50;99.90;;;;;;4903351;29;20029;-76
2023/02/21 13:14:44;;;;;;;29.40;10.18;;;10.50;99.90;;;;;;4903887;29;20107;-78
2023/02/21 13:17:15;;;;;;;24.52;10.30;;;10.50;99.90;;;;;;4903869;29;20052;-76
2023/02/21 13:20:05;;;;;;;39.17;11.88;;;10.60;99.90;;;;;;4895280;29;20043;-80
2023/02/21 13:23:02;;;;;;;28.45;10.80;;;10.50;99.90;;;;;;4898312;29;20034;-78
2023/02/21 13:26:03;;;;;;;29.83;10.45;;;10.70;99.90;;;;;;4898865;29;20037;-77
2023/02/21 13:28:35;;;;;;;30.67;11.15;;;10.80;99.90;;;;;;4902383;29;20031;-77
2023/02/21 13:31:03;;;;;;;33.33;12.45;;;10.70;99.90;;;;;;4903754;29;20093;-77
2023/02/21 13:33:37;;;;;;;37.58;12.75;;;10.70;99.90;;;;;;4903649;29;20029;-77
2023/02/21 13:36:20;;;;;;;37.88;13.93;;;10.70;99.90;;;;;;4895955;29;20032;-77
2023/02/21 13:38:58;;;;;;;34.28;11.68;;;10.70;99.90;;;;;;4902424;29;20057;-77
2023/02/21 13:41:27;;;;;;;33.80;12.63;;;10.80;99.90;;;;;;4903567;29;20036;-77
2023/02/21 13:43:57;;;;;;;38.22;12.40;;;10.80;99.90;;;;;;4902712;29;20029;-77
2023/02/21 13:46:29;;;;;;;30.75;12.05;;;10.70;99.90;;;;;;4892360;29;20622;-76
2023/02/21 13:49:32;;;;;;;27.63;10.88;;;10.70;99.90;;;;;;4891473;29;20032;-75
2023/02/21 13:52:25;;;;;;;22.75;9.48;;;10.60;99.90;;;;;;4900145;29;20025;-76
2023/02/21 13:55:19;;;;;;;21.75;8.85;;;10.60;99.90;;;;;;4901815;29;20033;-75
2023/02/21 13:57:45;;;;;;;20.92;8.65;;;10.60;99.90;;;;;;4888893;29;20037;-76
2023/02/21 14:00:31;;;;;;;15.52;7.05;;;10.50;99.90;;;;;;4888672;29;20137;-75
2023/02/21 14:03:00;;;;;;;14.32;6.60;;;10.50;99.90;;;;;;4884169;29;20127;-75
2023/02/21 14:05:49;;;;;;;13.98;6.88;;;10.50;99.90;;;;;;4885691;29;20039;-76
2023/02/21 14:08:34;;;;;;;11.93;5.28;;;10.50;99.90;;;;;;4860002;29;20064;-76
2023/02/21 14:11:09;;;;;;;11.57;6.45;;;10.50;99.90;;;;;;4901786;29;20048;-76
2023/02/21 14:13:57;;;;;;;14.90;6.15;;;10.50;99.90;;;;;;4906196;29;20037;-77
2023/02/21 14:16:42;;;;;;;14.32;6.25;;;10.50;99.90;;;;;;4905198;29;20180;-76
2023/02/21 14:19:25;;;;;;;10.18;5.68;;;10.50;99.90;;;;;;4904668;29;20101;-74
2023/02/21 14:21:58;;;;;;;12.70;5.40;;;10.50;99.90;;;;;;4897965;29;20025;-77
2023/02/21 14:24:27;;;;;;;12.27;5.93;;;10.50;99.90;;;;;;4891033;29;20040;-77
2023/02/21 14:27:08;;;;;;;13.57;5.32;;;10.40;99.90;;;;;;4905791;29;20032;-76
2023/02/21 14:29:43;;;;;;;10.40;5.32;;;10.50;99.90;;;;;;4904658;29;20048;-78
2023/02/21 14:32:09;;;;;;;12.55;4.88;;;10.40;99.90;;;;;;4904306;29;20044;-75
2023/02/21 14:34:52;;;;;;;10.55;5.30;;;10.40;99.90;;;;;;4884011;29;20482;-75
2023/02/21 14:37:26;;;;;;;9.82;4.57;;;10.50;99.90;;;;;;4872590;29;20029;-76
2023/02/21 14:40:13;;;;;;;10.02;3.70;;;10.50;99.90;;;;;;4887504;29;20076;-76
2023/02/21 14:43:04;;;;;;;13.38;5.53;;;10.40;99.90;;;;;;4886244;29;20102;-75
2023/02/21 14:45:38;;;;;;;12.10;5.03;;;10.30;99.90;;;;;;4884875;29;20029;-77
2023/02/21 14:48:41;;;;;;;12.43;5.85;;;10.30;99.90;;;;;;4883987;29;20037;-77
2023/02/21 14:51:31;;;;;;;10.63;5.10;;;10.30;99.90;;;;;;4880922;29;20648;-75
2023/02/21 14:53:59;;;;;;;14.20;5.07;;;10.30;99.90;;;;;;4876324;29;20497;-76
2023/02/21 14:56:52;;;;;;;12.52;5.47;;;10.20;99.90;;;;;;4879007;29;20036;-76
2023/02/21 14:59:37;;;;;;;9.52;4.50;;;10.20;99.90;;;;;;4876070;29;20038;-75
2023/02/21 15:02:16;;;;;;;9.80;4.10;;;10.20;99.90;;;;;;4879288;29;20037;-77
2023/02/21 15:04:49;;;;;;;11.43;4.60;;;10.20;99.90;;;;;;4875466;29;20494;-76
2023/02/21 15:07:25;;;;;;;13.15;5.25;;;10.10;99.90;;;;;;4870882;29;20044;-76
2023/02/21 15:10:10;;;;;;;9.23;4.45;;;10.10;99.90;;;;;;4881223;29;20036;-74
2023/02/21 15:12:40;;;;;;;12.60;5.15;;;10.00;99.90;;;;;;4880850;29;20029;-75
2023/02/21 15:15:16;;;;;;;10.20;4.72;;;10.00;99.90;;;;;;4881313;29;20024;-76
2023/02/21 15:17:42;;;;;;;13.82;4.85;;;10.00;99.90;;;;;;4877824;29;20057;-76
2023/02/21 15:20:18;;;;;;;10.48;4.90;;;10.00;99.90;;;;;;4881174;29;20371;-77